Time;durP1;ratioP1;P1;durP2;ratioP2;P2;SDS_P1;SDS_P2;PMS_P1;PMS_P2;Temp;Humidity;BMP_temperature;BMP_pressure;BME280_temperature;BME280_humidity;BME280_pressure;Samples;Min_cycle;Max_cycle;Signal;HPM_P1;HPM_P2
2022/08/08 00:02:46;;;;;;;9.70;5.83;;;;;;;18.95;79.27;99828.09;1787510;80;20072;-42
2022/08/08 00:05:49;;;;;;;7.17;5.83;;;;;;;18.87;79.47;99825.22;1788278;80;21001;-42
2022/08/08 00:08:35;;;;;;;6.83;5.83;;;;;;;18.89;79.54;99826.95;1788294;80;20964;-42
2022/08/08 00:11:19;;;;;;;9.70;5.80;;;;;;;18.93;79.66;99831.03;1788204;80;21511;-42
2022/08/08 00:14:03;;;;;;;6.50;5.90;;;;;;;18.97;79.49;99828.48;1788207;80;21087;-42
2022/08/08 00:17:10;;;;;;;6.40;5.42;;;;;;;19.03;79.28;99835.67;1788339;80;20964;-42
2022/08/08 00:19:54;;;;;;;7.72;5.50;;;;;;;19.06;79.04;99839.00;1788216;80;20993;-42
2022/08/08 00:22:45;;;;;;;8.48;6.42;;;;;;;19.07;78.91;99841.95;1742542;80;20949;-42
2022/08/08 00:25:23;;;;;;;12.98;5.53;;;;;;;19.10;78.79;99840.53;1778648;80;21072;-42
2022/08/08 00:27:53;;;;;;;7.33;5.45;;;;;;;19.07;78.50;99842.70;1775054;80;21126;-42
2022/08/08 00:30:20;;;;;;;7.58;5.62;;;;;;;19.12;78.69;99846.23;1778631;80;21031;-42
2022/08/08 00:32:58;;;;;;;8.88;5.58;;;;;;;19.17;78.54;99842.42;1775009;80;20946;-42
2022/08/08 00:35:48;;;;;;;8.38;6.00;;;;;;;19.25;78.34;99839.83;1774697;80;20941;-42
2022/08/08 00:38:45;;;;;;;8.63;5.95;;;;;;;19.31;78.11;99845.08;1774578;80;20949;-42
2022/08/08 00:41:41;;;;;;;10.23;5.62;;;;;;;19.31;77.90;99839.58;1774339;80;21246;-42
2022/08/08 00:44:23;;;;;;;9.60;6.00;;;;;;;19.32;77.72;99846.62;1774058;80;21477;-42
2022/08/08 00:47:30;;;;;;;7.05;5.05;;;;;;;19.31;77.60;99839.58;1774191;80;20898;-42
2022/08/08 00:50:22;;;;;;;11.05;5.78;;;;;;;19.32;77.65;99838.96;1774185;80;20925;-42
2022/08/08 00:53:06;;;;;;;7.20;5.20;;;;;;;19.29;77.46;99841.16;1772671;80;21123;-42
2022/08/08 00:56:13;;;;;;;6.47;5.28;;;;;;;19.25;77.53;99844.54;1773838;80;23145;-42
2022/08/08 00:59:05;;;;;;;10.00;5.03;;;;;;;19.23;77.53;99840.03;1774057;80;21013;-42
2022/08/08 01:01:40;;;;;;;6.80;5.37;;;;;;;19.20;77.79;99837.52;1774187;80;20934;-42
2022/08/08 01:04:47;;;;;;;10.68;5.78;;;;;;;19.20;77.67;99836.73;1772395;80;21574;-42
2022/08/08 01:07:56;;;;;;;5.85;5.30;;;;;;;19.19;77.67;99836.53;1774315;80;20961;-42
2022/08/08 01:11:21;;;;;;;6.25;5.05;;;;;;;19.17;77.77;99843.05;1774250;80;23221;-42
2022/08/08 01:14:22;;;;;;;5.60;4.55;;;;;;;19.15;77.95;99833.83;1773190;80;20941;-42
2022/08/08 01:17:24;;;;;;;5.35;4.75;;;;;;;19.16;77.94;99838.73;1774640;80;21495;-42
2022/08/08 01:20:23;;;;;;;5.00;4.50;;;;;;;19.12;77.74;99838.77;1769673;80;20977;-42
2022/08/08 01:23:42;;;;;;;8.20;5.97;;;;;;;19.07;77.88;99846.06;1774331;80;21041;-42
2022/08/08 01:26:41;;;;;;;6.83;5.03;;;;;;;19.05;78.09;99836.84;1781436;80;21131;-42
2022/08/08 01:29:26;;;;;;;5.83;5.20;;;;;;;19.02;78.24;99837.66;1782392;80;21045;-42
2022/08/08 01:32:26;;;;;;;6.05;5.37;;;;;;;19.06;78.48;99830.17;1782376;80;20965;-42
2022/08/08 01:35:34;;;;;;;6.30;4.85;;;;;;;19.08;78.14;99836.61;1782259;80;21475;-42
2022/08/08 01:38:40;;;;;;;10.73;5.40;;;;;;;19.05;78.13;99836.84;1782519;80;21546;-42
2022/08/08 01:41:30;;;;;;;6.85;5.10;;;;;;;19.07;77.96;99846.06;1782344;80;21140;-42
2022/08/08 01:44:34;;;;;;;10.93;5.10;;;;;;;19.05;77.97;99849.80;1782228;80;20965;-42
2022/08/08 01:47:32;;;;;;;6.97;5.67;;;;;;;19.03;78.08;99846.08;1782453;80;21032;-42
2022/08/08 01:50:43;;;;;;;10.40;6.08;;;;;;;19.00;77.93;99850.23;1782689;80;21016;-42
2022/08/08 01:53:18;;;;;;;7.42;5.35;;;;;;;18.95;78.18;99849.28;1782436;80;21091;-42
2022/08/08 01:56:16;;;;;;;6.50;5.55;;;;;;;18.92;78.33;99845.98;1782489;80;21142;-42
2022/08/08 01:59:24;;;;;;;6.30;5.10;;;;;;;18.92;78.32;99852.26;1782343;80;21507;-42
2022/08/08 02:02:26;;;;;;;6.78;5.35;;;;;;;18.91;78.23;99851.28;1782327;80;20922;-42
2022/08/08 02:05:13;;;;;;;5.85;5.10;;;;;;;18.88;78.37;99855.60;1782283;80;21044;-42
2022/08/08 02:08:15;;;;;;;6.25;5.15;;;;;;;18.87;78.34;99848.56;1781778;80;21000;-42
2022/08/08 02:11:06;;;;;;;6.62;5.28;;;;;;;18.88;78.37;99846.60;1782327;80;21858;-42
2022/08/08 02:14:05;;;;;;;6.15;5.55;;;;;;;18.87;78.46;99853.27;1782219;80;20991;-42
2022/08/08 02:16:54;;;;;;;7.62;5.20;;;;;;;18.88;78.44;99844.61;1782027;80;21037;-42
2022/08/08 02:19:33;;;;;;;8.83;5.87;;;;;;;18.86;78.56;99848.96;1781866;80;21013;-42
2022/08/08 02:22:32;;;;;;;7.53;5.80;;;;;;;18.89;78.60;99839.91;1782398;80;21004;-42
2022/08/08 02:25:35;;;;;;;7.97;5.67;;;;;;;18.92;78.65;99842.64;1779878;80;23190;-42
2022/08/08 02:28:14;;;;;;;8.35;6.10;;;;;;;18.96;78.47;99844.77;1774193;80;20965;-43
2022/08/08 02:31:05;;;;;;;8.58;5.50;;;;;;;18.94;78.24;99842.22;1774685;80;21041;-42
2022/08/08 02:34:07;;;;;;;9.23;5.35;;;;;;;18.94;78.23;99846.34;1774428;80;21060;-42
2022/08/08 02:36:55;;;;;;;10.15;5.97;;;;;;;18.95;78.32;99847.91;1774003;80;20962;-42
2022/08/08 02:40:04;;;;;;;7.00;5.87;;;;;;;18.98;78.17;99846.50;1773712;80;21223;-42
2022/08/08 02:43:08;;;;;;;6.10;5.37;;;;;;;18.98;78.06;99842.97;1773815;80;21523;-42
2022/08/08 02:46:03;;;;;;;7.65;6.08;;;;;;;18.97;78.07;99849.67;1774113;80;20961;-42
2022/08/08 02:49:03;;;;;;;7.87;6.37;;;;;;;18.99;78.21;99845.91;1774052;80;21361;-42
2022/08/08 02:52:08;;;;;;;7.90;6.17;;;;;;;18.98;78.14;99846.50;1762685;80;20974;-42
2022/08/08 02:55:07;;;;;;;8.08;6.45;;;;;;;18.95;78.11;99842.41;1773866;80;21087;-42
2022/08/08 02:58:18;;;;;;;6.80;6.10;;;;;;;18.95;78.25;99846.54;1774319;80;20942;-42
2022/08/08 03:01:20;;;;;;;10.28;6.08;;;;;;;18.89;78.38;99848.93;1759544;80;21294;-42
2022/08/08 03:04:34;;;;;;;8.83;6.28;;;;;;;18.85;78.60;99853.67;1773921;80;20977;-42
2022/08/08 03:07:45;;;;;;;8.70;6.67;;;;;;;18.85;78.81;99850.14;1774312;80;21053;-42
2022/08/08 03:10:50;;;;;;;8.30;5.47;;;;;;;18.87;78.87;99856.02;1774173;80;21227;-42
2022/08/08 03:13:38;;;;;;;7.37;6.45;;;;;;;18.87;78.78;99854.06;1774450;80;20990;-42
2022/08/08 03:16:39;;;;;;;8.55;6.30;;;;;;;18.87;78.81;99856.81;1773263;80;20957;-42
2022/08/08 03:19:47;;;;;;;7.70;6.45;;;;;;;18.91;78.84;99862.27;1774069;80;21009;-42
2022/08/08 03:22:13;;;;;;;7.50;6.28;;;;;;;18.92;78.79;99856.97;1774022;80;21061;-42
2022/08/08 03:24:40;;;;;;;9.23;6.42;;;;;;;18.91;78.67;99860.90;1774027;80;22019;-42
2022/08/08 03:27:20;;;;;;;8.60;7.10;;;;;;;18.93;78.63;99859.88;1773287;80;21077;-42
2022/08/08 03:29:55;;;;;;;10.08;6.50;;;;;;;18.91;78.50;99859.52;1774091;80;20958;-42
2022/08/08 03:35:09;;;;;;;9.08;6.67;;;;;;;18.94;78.59;99862.83;1774176;80;21088;-42
2022/08/08 03:37:36;;;;;;;10.03;7.08;;;;;;;18.93;78.56;99865.38;1752110;80;21327;-42
2022/08/08 03:40:05;;;;;;;8.18;6.47;;;;;;;18.94;78.71;99866.95;1751996;80;21519;-42
2022/08/08 03:42:36;;;;;;;9.33;6.62;;;;;;;18.96;78.68;99861.84;1774479;80;21037;-42
2022/08/08 03:45:14;;;;;;;11.48;6.78;;;;;;;18.99;78.65;99861.03;1774082;80;20957;-42
2022/08/08 03:47:41;;;;;;;8.15;6.20;;;;;;;18.99;78.52;99862.40;1752294;80;21073;-42
2022/08/08 03:50:17;;;;;;;8.50;6.75;;;;;;;18.96;78.56;99870.87;1774204;80;21246;-42
2022/08/08 03:52:44;;;;;;;8.00;6.40;;;;;;;18.99;78.84;99871.43;1773841;80;21574;-42
2022/08/08 03:55:14;;;;;;;9.45;6.65;;;;;;;19.03;78.65;99878.27;1774267;80;20938;-43
2022/08/08 03:57:46;;;;;;;8.03;6.40;;;;;;;19.04;78.52;99870.22;1774529;80;21049;-42
2022/08/08 04:00:15;;;;;;;7.75;6.78;;;;;;;19.04;78.57;99869.63;1774141;80;21073;-42
2022/08/08 04:02:56;;;;;;;9.70;6.20;;;;;;;19.04;78.57;99866.88;1774387;80;21079;-42
2022/08/08 04:05:31;;;;;;;10.30;6.75;;;;;;;19.04;78.45;99874.34;1777451;80;20918;-42
2022/08/08 04:08:03;;;;;;;6.47;5.83;;;;;;;19.03;78.31;99870.80;1773056;80;20989;-42
2022/08/08 04:10:31;;;;;;;6.28;5.65;;;;;;;19.00;78.32;99874.96;1774010;80;21607;-42
2022/08/08 04:13:00;;;;;;;6.95;4.90;;;;;;;19.01;78.41;99880.66;1773953;80;21026;-42
2022/08/08 04:15:27;;;;;;;5.95;5.08;;;;;;;18.99;78.37;99877.52;1774026;80;21229;-42
2022/08/08 04:17:54;;;;;;;7.25;5.50;;;;;;;19.00;78.40;99876.34;1774065;80;20898;-42
2022/08/08 04:20:20;;;;;;;6.65;5.30;;;;;;;19.04;78.52;99879.25;1774170;80;21068;-42
2022/08/08 04:22:48;;;;;;;6.15;5.53;;;;;;;19.09;78.39;99876.66;1774083;80;20934;-42
2022/08/08 04:25:15;;;;;;;8.80;5.50;;;;;;;19.12;78.21;99876.45;1774528;80;21065;-43
2022/08/08 04:27:42;;;;;;;6.25;5.65;;;;;;;19.15;78.26;99875.05;1775904;80;21094;-42
2022/08/08 04:30:11;;;;;;;6.95;5.62;;;;;;;19.18;78.13;99879.73;1779907;80;21028;-42
2022/08/08 04:32:39;;;;;;;7.70;5.72;;;;;;;19.18;77.83;99876.98;1780028;80;21566;-42
2022/08/08 04:35:07;;;;;;;7.25;5.58;;;;;;;19.22;77.89;99885.97;1780145;80;21080;-42
2022/08/08 04:37:36;;;;;;;;;;;;;;;19.22;77.63;99888.72;1782591;80;21598;-42
2022/08/08 04:40:08;;;;;;;6.87;4.90;;;;;;;19.20;77.44;99884.83;1779176;80;21230;-42
2022/08/08 04:42:37;;;;;;;6.37;4.15;;;;;;;19.09;77.56;99891.77;1779679;80;21029;-42
2022/08/08 04:45:05;;;;;;;4.42;4.03;;;;;;;19.10;77.45;99890.59;1779885;80;20941;-42
2022/08/08 04:47:32;;;;;;;6.15;4.10;;;;;;;19.13;77.36;99891.16;1779930;80;21009;-42
2022/08/08 04:50:00;;;;;;;5.62;4.05;;;;;;;19.14;77.29;99891.34;1779878;80;21037;-42
2022/08/08 04:52:27;;;;;;;8.08;4.67;;;;;;;19.17;77.14;99896.02;1779944;80;21122;-42
2022/08/08 04:54:54;;;;;;;7.72;4.37;;;;;;;19.18;77.10;99895.44;1779891;80;20972;-43
2022/08/08 04:57:22;;;;;;;5.42;4.35;;;;;;;19.17;77.15;99890.53;1779991;80;20985;-43
2022/08/08 04:59:49;;;;;;;5.60;4.92;;;;;;;19.17;77.10;99893.28;1779889;80;21224;-42
2022/08/08 05:02:17;;;;;;;8.13;5.20;;;;;;;19.17;77.30;99891.91;1751918;80;21080;-42
2022/08/08 05:04:44;;;;;;;8.23;5.25;;;;;;;19.19;77.26;99892.29;1779724;80;21137;-43
2022/08/08 05:07:11;;;;;;;7.00;5.00;;;;;;;19.23;77.37;99895.00;1779898;80;20941;-42
2022/08/08 05:09:39;;;;;;;9.10;4.87;;;;;;;19.25;77.47;99892.05;1779763;80;21074;-42
2022/08/08 05:12:07;;;;;;;5.45;4.95;;;;;;;19.31;77.35;99902.03;1777089;80;21021;-42
2022/08/08 05:14:35;;;;;;;9.28;5.10;;;;;;;19.33;76.93;99903.17;1779745;80;21048;-42
2022/08/08 05:17:04;;;;;;;8.13;5.00;;;;;;;19.33;76.74;99907.89;1779883;80;21484;-42
2022/08/08 05:19:34;;;;;;;6.53;5.40;;;;;;;19.32;76.71;99901.61;1780080;80;21012;-42
2022/08/08 05:22:02;;;;;;;9.05;5.55;;;;;;;19.32;76.83;99913.19;1780023;80;21041;-42
2022/08/08 05:24:30;;;;;;;6.75;4.85;;;;;;;19.32;76.71;99912.60;1780196;80;21571;-42
2022/08/08 05:26:58;;;;;;;7.62;5.50;;;;;;;19.34;76.81;99910.83;1776115;80;20989;-42
2022/08/08 05:29:26;;;;;;;6.72;5.33;;;;;;;19.34;76.74;99919.86;1779473;80;21251;-42
2022/08/08 05:31:53;;;;;;;7.20;5.55;;;;;;;19.34;76.63;99919.08;1780052;80;21020;-42
2022/08/08 05:34:35;;;;;;;7.05;4.67;;;;;;;19.32;76.70;99919.48;1780035;80;21000;-43
2022/08/08 05:37:04;;;;;;;9.10;6.00;;;;;;;19.35;76.83;99922.02;1774510;80;21020;-42
2022/08/08 05:39:31;;;;;;;8.33;6.37;;;;;;;19.39;76.76;99920.81;1780164;80;21041;-42
2022/08/08 05:41:59;;;;;;;10.65;7.65;;;;;;;19.42;76.63;99929.61;1779831;80;21150;-42
2022/08/08 05:44:29;;;;;;;10.58;7.20;;;;;;;19.37;76.31;99924.55;1751535;80;21559;-42
2022/08/08 05:46:57;;;;;;;11.15;7.03;;;;;;;19.30;76.21;99932.86;1779461;80;21605;-42
2022/08/08 05:49:24;;;;;;;11.03;7.08;;;;;;;19.24;76.42;99931.72;1779892;80;21875;-42
2022/08/08 05:51:51;;;;;;;8.08;6.97;;;;;;;19.22;76.77;99935.45;1779893;80;21010;-42
2022/08/08 05:54:20;;;;;;;10.23;7.03;;;;;;;19.19;76.74;99934.89;1779560;80;21218;-42
2022/08/08 05:56:47;;;;;;;11.25;6.72;;;;;;;19.17;76.71;99934.50;1779878;80;20981;-42
2022/08/08 05:59:22;;;;;;;9.75;6.75;;;;;;;19.18;76.85;99939.41;1779835;80;21065;-42
2022/08/08 06:01:55;;;;;;;7.12;5.75;;;;;;;19.19;76.83;99929.40;1780009;80;21000;-42
2022/08/08 06:04:25;;;;;;;6.65;5.20;;;;;;;19.23;76.88;99928.77;1779834;80;21001;-42
2022/08/08 06:06:58;;;;;;;7.60;5.95;;;;;;;19.28;76.79;99927.56;1779837;80;21213;-42
2022/08/08 06:09:31;;;;;;;9.13;6.58;;;;;;;19.31;76.33;99927.56;1779781;80;20993;-42
2022/08/08 06:12:00;;;;;;;9.70;6.62;;;;;;;19.33;76.44;99933.42;1780184;80;20986;-42
2022/08/08 06:14:28;;;;;;;12.37;7.85;;;;;;;19.39;76.45;99941.43;1751539;80;20974;-42
2022/08/08 06:17:03;;;;;;;9.03;6.83;;;;;;;19.48;76.41;99939.62;1780346;80;21068;-42
2022/08/08 06:19:31;;;;;;;8.98;6.62;;;;;;;19.53;76.00;99935.84;1777962;80;21201;-42
2022/08/08 06:21:58;;;;;;;10.53;6.35;;;;;;;19.57;75.88;99937.77;1752237;80;21016;-42
2022/08/08 06:24:28;;;;;;;8.18;5.87;;;;;;;19.61;75.56;99942.64;1778769;80;21515;-42
2022/08/08 06:27:02;;;;;;;7.50;6.10;;;;;;;19.62;75.30;99937.34;1779884;80;21523;-42
2022/08/08 06:30:02;;;;;;;8.28;6.10;;;;;;;19.58;75.46;99939.34;1775365;80;21013;-42
2022/08/08 06:32:44;;;;;;;7.30;6.37;;;;;;;19.61;75.71;99944.02;1774086;80;21238;-42
2022/08/08 06:35:14;;;;;;;9.40;5.85;;;;;;;19.63;75.64;99943.03;1774037;80;21069;-42
2022/08/08 06:37:46;;;;;;;7.45;6.62;;;;;;;19.66;75.43;99943.00;1773637;80;20984;-42
2022/08/08 06:40:16;;;;;;;9.88;6.45;;;;;;;19.69;75.36;99943.58;1751995;80;21053;-42
2022/08/08 06:42:55;;;;;;;8.55;6.67;;;;;;;19.73;75.30;99949.04;1774228;80;21794;-42
2022/08/08 06:45:23;;;;;;;8.18;6.62;;;;;;;19.77;75.11;99949.78;1773528;80;21335;-42
2022/08/08 06:47:51;;;;;;;8.35;6.58;;;;;;;19.79;74.68;99946.83;1774019;80;21523;-42
2022/08/08 06:50:18;;;;;;;9.35;6.97;;;;;;;19.81;74.65;99947.78;1769234;80;21484;-43
2022/08/08 06:52:45;;;;;;;9.90;7.03;;;;;;;19.80;74.58;99947.61;1774090;80;21571;-42
2022/08/08 06:55:12;;;;;;;10.10;7.37;;;;;;;19.82;74.71;99950.13;1774041;80;21485;-42
2022/08/08 06:57:39;;;;;;;12.15;7.70;;;;;;;19.87;74.80;99947.53;1774044;80;23153;-42
2022/08/08 07:00:08;;;;;;;10.20;7.20;;;;;;;19.89;74.49;99956.17;1774094;80;21578;-42
2022/08/08 07:02:36;;;;;;;8.80;6.87;;;;;;;19.86;74.63;99956.37;1774237;80;20977;-42
2022/08/08 07:05:09;;;;;;;12.45;7.50;;;;;;;19.88;74.59;99950.48;1773919;80;21165;-42
2022/08/08 07:07:42;;;;;;;9.10;7.42;;;;;;;19.90;74.51;99950.84;1774292;80;21017;-42
2022/08/08 07:10:11;;;;;;;11.53;7.10;;;;;;;19.92;74.35;99950.63;1774408;80;21952;-42
2022/08/08 07:12:48;;;;;;;9.83;7.78;;;;;;;19.95;74.46;99955.30;1774158;80;21006;-42
2022/08/08 07:15:17;;;;;;;9.20;6.80;;;;;;;20.04;74.44;99959.57;1774536;80;21032;-42
2022/08/08 07:17:50;;;;;;;10.28;7.12;;;;;;;20.09;74.22;99961.27;1774148;80;21041;-42
2022/08/08 07:20:20;;;;;;;8.75;7.03;;;;;;;20.16;74.35;99969.46;1774501;80;21036;-42
2022/08/08 07:23:05;;;;;;;9.98;7.12;;;;;;;20.23;74.00;99968.02;1774167;80;21175;-42
2022/08/08 07:25:35;;;;;;;10.98;6.72;;;;;;;20.29;73.84;99970.49;1773636;80;21527;-42
2022/08/08 07:28:14;;;;;;;10.85;6.97;;;;;;;20.33;73.84;99974.02;1777692;80;21035;-43
2022/08/08 07:30:42;;;;;;;8.25;6.35;;;;;;;20.44;73.72;99968.98;1779856;80;21028;-42
2022/08/08 07:33:10;;;;;;;9.95;6.55;;;;;;;20.51;73.44;99970.30;1779781;80;21506;-42
2022/08/08 07:35:40;;;;;;;11.75;7.45;;;;;;;20.59;73.13;99975.89;1779855;80;21236;-42
2022/08/08 07:38:09;;;;;;;10.85;7.85;;;;;;;20.61;72.89;99973.52;1779643;80;21068;-42
2022/08/08 07:40:47;;;;;;;13.20;7.85;;;;;;;20.57;72.54;99981.83;1779309;80;20918;-42
2022/08/08 07:43:15;;;;;;;10.48;8.08;;;;;;;20.54;72.50;99981.85;1779924;80;20965;-42
2022/08/08 07:45:47;;;;;;;10.72;7.65;;;;;;;20.48;72.58;99978.77;1778389;80;21025;-42
2022/08/08 07:48:14;;;;;;;11.43;7.92;;;;;;;20.51;72.81;99988.20;1780176;80;21523;-42
2022/08/08 07:50:42;;;;;;;9.83;7.22;;;;;;;20.56;72.71;99984.98;1779822;80;20933;-42
2022/08/08 07:53:18;;;;;;;12.60;7.60;;;;;;;20.63;72.91;99986.27;1752155;80;20969;-43
2022/08/08 07:55:47;;;;;;;9.70;7.95;;;;;;;20.72;72.33;99985.20;1779779;80;21016;-42
2022/08/08 07:58:31;;;;;;;10.20;7.90;;;;;;;20.76;72.12;99983.96;1780380;80;21037;-42
2022/08/08 08:01:19;;;;;;;11.10;7.30;;;;;;;20.78;71.93;99990.42;1780078;80;21244;-42
2022/08/08 08:04:03;;;;;;;12.37;7.97;;;;;;;20.85;72.18;99989.56;1779780;80;21535;-42
2022/08/08 08:06:32;;;;;;;11.30;7.58;;;;;;;20.96;72.07;99999.23;1749013;80;21015;-42
2022/08/08 08:09:14;;;;;;;10.08;7.50;;;;;;;20.96;71.25;100003.37;1780113;80;21522;-42
2022/08/08 08:11:46;;;;;;;9.05;7.15;;;;;;;20.98;71.42;100003.75;1780046;80;21071;-42
2022/08/08 08:14:18;;;;;;;9.73;7.58;;;;;;;20.98;71.09;99996.86;1780006;80;21239;-42
2022/08/08 08:16:46;;;;;;;9.80;7.35;;;;;;;20.99;71.13;99994.88;1779906;80;20937;-42
2022/08/08 08:19:13;;;;;;;10.95;7.67;;;;;;;21.03;71.30;99997.77;1780008;80;21615;-42
2022/08/08 08:21:43;;;;;;;7.62;6.53;;;;;;;21.09;70.92;99997.50;1779897;80;21037;-43
2022/08/08 08:24:13;;;;;;;14.07;7.92;;;;;;;21.16;70.97;99993.28;1779429;80;21012;-42
2022/08/08 08:26:40;;;;;;;12.07;7.22;;;;;;;21.19;70.60;99997.98;1779818;80;21222;-42
2022/08/08 08:29:08;;;;;;;10.98;7.45;;;;;;;21.21;70.67;99999.70;1777901;80;21009;-43
2022/08/08 08:31:36;;;;;;;11.90;8.95;;;;;;;21.28;70.70;100007.11;1774115;80;21037;-42
2022/08/08 08:34:03;;;;;;;9.73;7.83;;;;;;;21.31;69.95;100002.73;1774439;80;21570;-42
2022/08/08 08:36:30;;;;;;;11.57;7.75;;;;;;;21.28;70.11;100009.87;1774142;80;21013;-42
2022/08/08 08:38:58;;;;;;;9.13;7.92;;;;;;;21.27;69.87;100003.38;1774030;80;21239;-42
2022/08/08 08:41:29;;;;;;;11.65;7.62;;;;;;;21.27;70.30;100007.52;1773420;80;21059;-42
2022/08/08 08:43:56;;;;;;;8.63;7.55;;;;;;;21.28;70.19;100003.57;1774298;80;20949;-42
2022/08/08 08:46:25;;;;;;;11.50;8.50;;;;;;;21.31;70.00;100011.00;1774349;80;21491;-42
2022/08/08 08:48:52;;;;;;;8.15;7.35;;;;;;;21.31;69.77;100006.86;1774321;80;21028;-42
2022/08/08 08:51:19;;;;;;;8.05;7.12;;;;;;;21.30;69.65;100013.60;1774258;80;21119;-42
2022/08/08 08:53:52;;;;;;;8.23;6.83;;;;;;;21.32;69.70;100008.43;1773967;80;21005;-42
2022/08/08 08:56:23;;;;;;;8.35;6.50;;;;;;;21.37;69.87;100007.97;1774013;80;20996;-42
2022/08/08 08:58:51;;;;;;;9.65;6.92;;;;;;;21.36;69.61;100009.94;1773987;80;21022;-42
2022/08/08 09:01:23;;;;;;;9.65;6.58;;;;;;;21.39;69.63;100009.72;1769672;80;21080;-43
2022/08/08 09:03:51;;;;;;;7.00;6.30;;;;;;;21.44;69.46;100003.73;1774314;80;21156;-42
2022/08/08 09:06:28;;;;;;;6.22;5.62;;;;;;;21.47;69.28;99994.61;1773412;80;21001;-42
2022/08/08 09:09:04;;;;;;;9.68;6.10;;;;;;;21.56;69.29;99997.62;1751452;80;20946;-42
2022/08/08 09:11:34;;;;;;;8.03;6.17;;;;;;;21.64;69.29;99994.92;1774419;80;21036;-42
2022/08/08 09:14:01;;;;;;;6.55;5.85;;;;;;;21.73;69.06;99991.66;1752983;80;21515;-42
2022/08/08 09:16:29;;;;;;;5.95;5.35;;;;;;;21.81;69.04;99995.84;1774069;80;22027;-42
2022/08/08 09:18:56;;;;;;;6.78;5.28;;;;;;;21.94;68.64;99995.45;1774166;80;21080;-42
2022/08/08 09:21:24;;;;;;;5.67;5.00;;;;;;;22.05;68.45;99997.43;1774225;80;20938;-42
2022/08/08 09:23:52;;;;;;;7.67;5.50;;;;;;;22.15;68.12;99995.08;1773974;80;20961;-42
2022/08/08 09:26:44;;;;;;;6.53;5.60;;;;;;;22.20;67.40;99989.67;1774326;80;21025;-42
2022/08/08 09:29:20;;;;;;;6.03;5.40;;;;;;;22.22;67.49;99996.31;1776308;80;21208;-43
2022/08/08 09:32:02;;;;;;;6.30;5.70;;;;;;;22.23;67.22;99991.58;1782895;80;21012;-43
2022/08/08 09:34:34;;;;;;;6.62;5.97;;;;;;;22.24;67.08;99995.91;1782731;80;21020;-42
2022/08/08 09:37:07;;;;;;;10.80;5.95;;;;;;;22.24;66.98;99989.00;1780672;80;20930;-43
2022/08/08 09:39:51;;;;;;;7.87;5.87;;;;;;;22.24;66.73;100004.19;1748605;82;21030;-42
2022/08/08 09:42:21;;;;;;;6.22;5.60;;;;;;;22.14;66.30;99997.66;1740390;82;21251;-42
2022/08/08 09:45:12;;;;;;;6.75;6.00;;;;;;;21.92;67.02;99999.22;1748937;82;21033;-42
2022/08/08 09:47:41;;;;;;;8.73;6.90;;;;;;;21.82;67.87;99998.80;1748645;82;21092;-42
2022/08/08 09:50:12;;;;;;;6.70;5.70;;;;;;;21.83;68.22;100001.73;1749128;82;20985;-42
2022/08/08 09:52:49;;;;;;;7.22;5.60;;;;;;;21.83;67.55;99997.59;1748739;82;21022;-42
2022/08/08 09:55:16;;;;;;;6.67;5.53;;;;;;;21.75;68.16;99996.92;1749081;82;21028;-42
2022/08/08 09:57:49;;;;;;;7.08;5.67;;;;;;;21.76;68.43;99997.11;1748521;82;21619;-43
2022/08/08 10:00:21;;;;;;;5.67;5.08;;;;;;;21.82;68.53;99996.81;1748960;82;21064;-42
2022/08/08 10:02:51;;;;;;;8.10;5.10;;;;;;;21.88;68.31;99988.21;1748576;82;20981;-42
2022/08/08 10:05:20;;;;;;;;;;;;;;;21.95;67.76;99988.73;1751727;82;21581;-42
2022/08/08 10:07:54;;;;;;;6.10;5.50;;;;;;;21.97;67.44;99985.74;1748415;82;23159;-42
2022/08/08 10:10:37;;;;;;;9.95;5.22;;;;;;;21.91;67.80;99990.75;1748945;82;21006;-42
2022/08/08 10:13:23;;;;;;;6.30;5.00;;;;;;;21.95;67.61;99998.39;1748849;82;21104;-42
2022/08/08 10:15:55;;;;;;;6.25;5.40;;;;;;;22.01;67.56;99991.98;1748973;82;20962;-42
2022/08/08 10:18:34;;;;;;;7.10;5.30;;;;;;;22.12;67.48;99983.52;1748717;82;21007;-43
2022/08/08 10:21:07;;;;;;;6.45;5.55;;;;;;;22.21;67.06;99989.86;1748588;82;23116;-43
2022/08/08 10:23:45;;;;;;;5.97;5.00;;;;;;;22.28;67.23;99990.48;1748553;82;20974;-43
2022/08/08 10:26:33;;;;;;;9.33;5.05;;;;;;;22.39;66.53;99989.70;1748825;82;20999;-43
2022/08/08 10:29:04;;;;;;;5.05;4.65;;;;;;;22.50;66.41;99985.34;1748023;82;21061;-43
2022/08/08 10:34:20;;;;;;;5.28;4.78;;;;;;;22.64;65.73;99988.42;1742520;82;23161;-42
2022/08/08 10:36:48;;;;;;;5.15;4.65;;;;;;;22.72;65.46;99998.16;1742597;82;20978;-42
2022/08/08 10:39:22;;;;;;;5.37;4.87;;;;;;;22.78;65.14;99998.63;1742519;82;21053;-42
2022/08/08 10:42:03;;;;;;;6.47;5.00;;;;;;;22.81;64.96;99995.59;1742162;82;21005;-43
2022/08/08 10:44:38;;;;;;;6.75;5.40;;;;;;;22.83;64.83;99994.58;1742769;82;21022;-42
2022/08/08 10:47:16;;;;;;;6.17;5.58;;;;;;;22.85;64.96;99997.08;1742903;82;21524;-43
2022/08/08 10:49:56;;;;;;;6.80;5.78;;;;;;;22.89;64.93;100002.55;1742794;82;21089;-42
2022/08/08 10:52:31;;;;;;;5.78;5.28;;;;;;;22.84;64.74;100002.45;1742752;82;21065;-42
2022/08/08 10:55:02;;;;;;;6.72;5.25;;;;;;;22.81;65.04;99997.76;1742759;82;21057;-42
2022/08/08 10:57:30;;;;;;;6.45;5.83;;;;;;;22.80;65.40;99998.20;1742964;82;21112;-42
2022/08/08 10:59:58;;;;;;;5.97;5.47;;;;;;;22.79;65.12;99996.04;1742762;82;21321;-43
2022/08/08 11:02:32;;;;;;;6.17;5.58;;;;;;;22.80;65.43;99994.81;1742799;82;21012;-42
2022/08/08 11:05:01;;;;;;;6.62;5.87;;;;;;;22.80;65.13;99996.19;1742554;82;21069;-43
2022/08/08 11:07:32;;;;;;;6.08;5.47;;;;;;;22.80;65.21;99989.28;1742901;82;21399;-43
2022/08/08 11:10:13;;;;;;;6.40;5.33;;;;;;;22.80;65.22;99994.06;1742481;82;21029;-42
2022/08/08 11:12:52;;;;;;;5.62;5.12;;;;;;;22.83;65.15;99993.98;1742855;82;21082;-42
2022/08/08 11:15:24;;;;;;;5.70;5.05;;;;;;;22.84;64.94;99990.02;1742470;82;21035;-43
2022/08/08 11:17:51;;;;;;;6.92;5.05;;;;;;;22.83;64.85;99992.59;1742882;82;20980;-42
2022/08/08 11:20:22;;;;;;;6.33;4.87;;;;;;;22.82;64.97;99985.50;1742636;82;21075;-42
2022/08/08 11:22:55;;;;;;;5.53;5.00;;;;;;;22.82;65.13;99982.73;1742662;82;21547;-42
2022/08/08 11:25:25;;;;;;;5.17;4.67;;;;;;;22.88;65.06;99978.87;1742653;82;21163;-42
2022/08/08 11:27:57;;;;;;;5.75;5.10;;;;;;;22.96;64.74;99982.43;1742664;82;21010;-43
2022/08/08 11:30:27;;;;;;;6.70;5.22;;;;;;;23.05;64.21;99979.07;1761320;80;21547;-43
2022/08/08 11:32:56;;;;;;;5.87;5.10;;;;;;;23.13;64.44;99976.34;1782729;80;20937;-43
2022/08/08 11:35:24;;;;;;;5.30;4.80;;;;;;;23.20;64.13;99986.45;1782962;80;21017;-43
2022/08/08 11:37:51;;;;;;;5.90;5.25;;;;;;;23.26;64.07;99979.20;1783020;80;21099;-42
2022/08/08 11:43:09;;;;;;;5.92;4.95;;;;;;;23.26;64.34;99975.84;1797457;79;22325;-42
2022/08/08 11:45:39;;;;;;;6.10;5.30;;;;;;;23.18;64.50;99978.60;1757390;81;20972;-42
2022/08/08 11:48:05;;;;;;;8.15;5.50;;;;;;;23.18;64.56;99973.67;1757456;81;21232;-43
2022/08/08 11:50:32;;;;;;;5.30;4.80;;;;;;;23.19;64.33;99981.52;1757105;81;20906;-43
2022/08/08 11:53:00;;;;;;;10.98;5.10;;;;;;;23.18;64.36;99983.35;1757135;81;21016;-42
2022/08/08 11:55:27;;;;;;;5.78;5.12;;;;;;;23.12;64.07;99978.15;1757134;81;20922;-42
2022/08/08 11:58:11;;;;;;;5.87;5.28;;;;;;;23.02;64.33;99980.55;1757076;81;20913;-43
2022/08/08 12:00:52;;;;;;;6.83;5.58;;;;;;;22.95;64.62;99977.31;1757081;81;21204;-42
2022/08/08 12:03:22;;;;;;;7.05;5.65;;;;;;;22.93;65.00;99981.91;1757379;81;20918;-42
2022/08/08 12:05:50;;;;;;;7.45;5.53;;;;;;;22.89;64.34;99977.06;1757103;81;20921;-43
2022/08/08 12:08:30;;;;;;;6.62;5.83;;;;;;;22.85;64.87;99977.72;1695865;83;20940;-43
2022/08/08 12:11:00;;;;;;;6.58;5.80;;;;;;;22.85;65.29;99976.34;1722875;83;21055;-42
2022/08/08 12:13:27;;;;;;;6.78;6.00;;;;;;;22.88;65.09;99978.87;1724007;83;21080;-43
2022/08/08 12:16:10;;;;;;;6.42;5.78;;;;;;;22.87;64.85;99978.09;1723790;83;20984;-42
2022/08/08 12:18:49;;;;;;;7.62;5.60;;;;;;;22.89;65.04;99974.30;1724141;83;20999;-42
2022/08/08 12:21:30;;;;;;;7.47;6.17;;;;;;;22.92;65.11;99973.44;1723842;83;21495;-42
2022/08/08 12:24:15;;;;;;;6.65;5.95;;;;;;;22.98;64.66;99975.70;1723978;83;21561;-43
2022/08/08 12:26:45;;;;;;;7.15;6.45;;;;;;;23.01;64.11;99960.41;1723813;83;21222;-42
2022/08/08 12:29:33;;;;;;;6.58;5.87;;;;;;;23.04;64.39;99965.70;1723778;83;20968;-43